createdAt,value
2018-12-29T00:00:19.609Z,2.80
2018-12-29T00:00:57.499Z,2.70
2018-12-29T00:01:33.587Z,2.70
2018-12-29T00:02:12.068Z,2.70
2018-12-29T00:02:48.525Z,2.70
2018-12-29T00:03:25.089Z,2.70
2018-12-29T00:04:01.371Z,2.70
2018-12-29T00:04:37.719Z,2.70
2018-12-29T00:05:14.113Z,2.70
2018-12-29T00:05:50.843Z,2.70
2018-12-29T00:06:27.313Z,2.70
2018-12-29T00:07:03.653Z,2.70
2018-12-29T00:07:40.125Z,2.70
2018-12-29T00:08:16.404Z,2.70
2018-12-29T00:08:52.700Z,2.80
2018-12-29T00:09:28.877Z,2.70
2018-12-29T00:10:05.385Z,2.70
2018-12-29T00:10:41.778Z,2.70
2018-12-29T00:11:18.164Z,2.70
2018-12-29T00:11:54.593Z,2.70
2018-12-29T00:12:31.067Z,2.60
2018-12-29T00:13:07.624Z,2.60
2018-12-29T00:13:43.994Z,2.60
2018-12-29T00:14:20.623Z,2.50
2018-12-29T00:14:57.030Z,2.50
2018-12-29T00:15:33.408Z,2.50
2018-12-29T00:16:09.509Z,2.60
2018-12-29T00:16:45.733Z,2.60
2018-12-29T00:17:22.370Z,2.60
2018-12-29T00:17:58.694Z,2.70
2018-12-29T00:18:34.949Z,2.70
2018-12-29T00:19:11.266Z,2.80
2018-12-29T00:19:47.533Z,2.80
2018-12-29T00:20:23.713Z,2.80
2018-12-29T00:20:59.847Z,2.80
2018-12-29T00:21:36.374Z,2.70
2018-12-29T00:22:12.377Z,2.70
2018-12-29T00:22:48.593Z,2.70
2018-12-29T00:23:25.035Z,2.80
2018-12-29T00:24:01.476Z,2.80
2018-12-29T00:24:37.843Z,2.80
2018-12-29T00:25:14.247Z,2.80
2018-12-29T00:25:50.452Z,2.80
2018-12-29T00:26:26.808Z,2.80
2018-12-29T00:27:03.209Z,2.80
2018-12-29T00:27:39.759Z,2.80
2018-12-29T00:28:16.036Z,2.70
2018-12-29T00:28:52.365Z,2.80
2018-12-29T00:29:28.950Z,2.80
2018-12-29T00:30:06.153Z,2.80
2018-12-29T00:30:42.478Z,2.70
2018-12-29T00:31:18.743Z,2.70
2018-12-29T00:31:54.976Z,2.70
2018-12-29T00:32:31.592Z,2.60
2018-12-29T00:33:07.826Z,2.60
2018-12-29T00:33:44.197Z,2.50
2018-12-29T00:34:20.280Z,2.50
2018-12-29T00:34:56.579Z,2.50
2018-12-29T00:35:32.878Z,2.50
2018-12-29T00:36:09.239Z,2.50
2018-12-29T00:36:46.628Z,2.60
2018-12-29T00:37:23.121Z,2.50
2018-12-29T00:37:59.496Z,2.50
2018-12-29T00:38:36.098Z,2.50
2018-12-29T00:39:12.282Z,2.50
2018-12-29T00:39:48.836Z,2.40
2018-12-29T00:40:25.250Z,2.40
2018-12-29T00:41:01.325Z,2.30
2018-12-29T00:41:37.708Z,2.30
2018-12-29T00:42:14.184Z,2.30
2018-12-29T00:42:51.385Z,2.20
2018-12-29T00:43:27.513Z,2.20
2018-12-29T00:44:03.985Z,2.20
2018-12-29T00:44:40.043Z,2.20
2018-12-29T00:45:16.587Z,2.20
2018-12-29T00:45:52.888Z,2.20
2018-12-29T00:46:29.388Z,2.20
2018-12-29T00:47:05.720Z,2.20
2018-12-29T00:47:42.089Z,2.20
2018-12-29T00:48:18.502Z,2.20
2018-12-29T00:48:54.781Z,2.30
2018-12-29T00:49:31.272Z,2.30
2018-12-29T00:50:07.653Z,2.30
2018-12-29T00:50:43.864Z,2.30
2018-12-29T00:51:20.117Z,2.30
2018-12-29T00:51:56.473Z,2.20
2018-12-29T00:52:32.684Z,2.30
2018-12-29T00:53:09.124Z,2.30
2018-12-29T00:53:45.448Z,2.30
2018-12-29T00:54:21.824Z,2.30
2018-12-29T00:54:58.280Z,2.30
2018-12-29T00:55:34.646Z,2.30
2018-12-29T00:56:11.059Z,2.40
2018-12-29T00:56:47.581Z,2.40
2018-12-29T00:57:23.828Z,2.40
2018-12-29T00:58:00.437Z,2.40
2018-12-29T00:58:37.087Z,2.40
2018-12-29T00:59:13.598Z,2.40
2018-12-29T00:59:49.797Z,2.30
2018-12-29T01:00:26.240Z,2.30
2018-12-29T01:01:02.451Z,2.30
2018-12-29T01:01:38.598Z,2.30
2018-12-29T01:02:15.159Z,2.30
2018-12-29T01:02:51.571Z,2.20
2018-12-29T01:03:27.992Z,2.30
2018-12-29T01:04:04.429Z,2.30
2018-12-29T01:04:40.914Z,2.30
2018-12-29T01:05:17.151Z,2.30
2018-12-29T01:05:53.560Z,2.30
2018-12-29T01:06:30.015Z,2.30
2018-12-29T01:07:06.295Z,2.30
2018-12-29T01:07:42.816Z,2.20
2018-12-29T01:08:19.148Z,2.20
2018-12-29T01:08:55.303Z,2.20
2018-12-29T01:09:31.518Z,2.20
2018-12-29T01:10:07.934Z,2.20
2018-12-29T01:10:44.245Z,2.20
2018-12-29T01:11:20.267Z,2.20
2018-12-29T01:11:56.240Z,2.10
2018-12-29T01:12:32.787Z,2.10
2018-12-29T01:13:08.861Z,2.10
2018-12-29T01:13:45.308Z,2.10
2018-12-29T01:14:21.622Z,2.10
2018-12-29T01:14:57.651Z,2.20
2018-12-29T01:15:33.963Z,2.30
2018-12-29T01:16:10.504Z,2.30
2018-12-29T01:16:47.129Z,2.30
2018-12-29T01:17:23.825Z,2.30
2018-12-29T01:18:00.327Z,2.40
2018-12-29T01:18:36.510Z,2.40
2018-12-29T01:19:12.859Z,2.40
2018-12-29T01:19:49.060Z,2.30
2018-12-29T01:20:25.451Z,2.30
2018-12-29T01:21:02.020Z,2.20
2018-12-29T01:21:38.307Z,2.20
2018-12-29T01:22:14.712Z,2.30
2018-12-29T01:22:51.344Z,2.30
2018-12-29T01:23:28.148Z,2.30
2018-12-29T01:24:04.477Z,2.30
2018-12-29T01:24:40.926Z,2.30
2018-12-29T01:25:17.376Z,2.30
2018-12-29T01:25:53.817Z,2.30
2018-12-29T01:26:30.239Z,2.30
2018-12-29T01:27:06.569Z,2.30
2018-12-29T01:27:43.352Z,2.30
2018-12-29T01:28:20.557Z,2.40
2018-12-29T01:28:58.062Z,2.40
2018-12-29T01:29:34.390Z,2.40
2018-12-29T01:30:10.872Z,2.40
2018-12-29T01:30:47.351Z,2.40
2018-12-29T01:31:23.823Z,2.40
2018-12-29T01:31:59.923Z,2.50
2018-12-29T01:32:36.351Z,2.50
2018-12-29T01:33:12.739Z,2.50
2018-12-29T01:33:49.358Z,2.40
2018-12-29T01:34:25.585Z,2.30
2018-12-29T01:35:01.963Z,2.20
2018-12-29T01:35:38.197Z,2.20
2018-12-29T01:36:14.584Z,2.20
2018-12-29T01:36:51.388Z,2.10
2018-12-29T01:37:27.779Z,2.10
2018-12-29T01:38:03.983Z,2.10
2018-12-29T01:38:40.176Z,2.10
2018-12-29T01:39:16.584Z,2.00
2018-12-29T01:39:53.155Z,2.00
2018-12-29T01:40:29.976Z,2.00
2018-12-29T01:41:06.208Z,2.10
2018-12-29T01:41:42.968Z,2.10
2018-12-29T01:42:19.576Z,2.20
2018-12-29T01:42:55.919Z,2.20
2018-12-29T01:43:32.234Z,2.20
2018-12-29T01:44:08.463Z,2.10
2018-12-29T01:44:44.734Z,2.10
2018-12-29T01:45:22.032Z,2.00
2018-12-29T01:45:58.388Z,2.00
2018-12-29T01:46:34.855Z,2.00
2018-12-29T01:47:11.442Z,1.90
2018-12-29T01:47:48.090Z,1.90
2018-12-29T01:48:24.728Z,1.90
2018-12-29T01:49:01.677Z,1.90
2018-12-29T01:49:38.201Z,1.90
2018-12-29T01:50:14.321Z,1.90
2018-12-29T01:50:50.649Z,2.00
2018-12-29T01:51:27.150Z,2.00
2018-12-29T01:52:03.456Z,2.00
2018-12-29T01:52:39.872Z,2.00
2018-12-29T01:53:16.143Z,1.90
2018-12-29T01:53:52.409Z,1.90
2018-12-29T01:54:28.666Z,1.90
2018-12-29T01:55:05.125Z,1.90
2018-12-29T01:55:41.371Z,1.90
2018-12-29T01:56:17.996Z,1.80
2018-12-29T01:56:54.338Z,1.70
2018-12-29T01:57:30.498Z,1.70
2018-12-29T01:58:07.109Z,1.60
2018-12-29T01:58:43.559Z,1.60
2018-12-29T01:59:19.961Z,1.60
2018-12-29T01:59:56.593Z,1.60
2018-12-29T02:00:32.979Z,1.50
2018-12-29T02:01:09.192Z,1.50
2018-12-29T02:01:45.462Z,1.40
2018-12-29T02:02:21.967Z,1.40
2018-12-29T02:02:58.502Z,1.40
2018-12-29T02:03:34.820Z,1.40
2018-12-29T02:04:11.510Z,1.40
2018-12-29T02:04:47.473Z,1.40
2018-12-29T02:05:23.874Z,1.40
2018-12-29T02:06:00.059Z,1.40
2018-12-29T02:06:36.449Z,1.40
2018-12-29T02:07:12.790Z,1.30
2018-12-29T02:07:48.844Z,1.30
2018-12-29T02:08:25.169Z,1.30
2018-12-29T02:09:01.606Z,1.30
2018-12-29T02:09:38.272Z,1.20
2018-12-29T02:10:15.137Z,1.30
2018-12-29T02:10:51.403Z,1.40
2018-12-29T02:11:28.004Z,1.40
2018-12-29T02:12:04.524Z,1.40
2018-12-29T02:12:41.014Z,1.40
2018-12-29T02:13:17.103Z,1.40
2018-12-29T02:13:53.674Z,1.40
2018-12-29T02:14:29.916Z,1.40
2018-12-29T02:15:06.465Z,1.40
2018-12-29T02:15:42.905Z,1.40
2018-12-29T02:16:19.166Z,1.40
2018-12-29T02:16:56.029Z,1.40
2018-12-29T02:17:32.177Z,1.30
2018-12-29T02:18:08.636Z,1.30
2018-12-29T02:18:44.988Z,1.30
2018-12-29T02:19:21.372Z,1.30
2018-12-29T02:19:57.797Z,1.30
2018-12-29T02:20:34.114Z,1.30
2018-12-29T02:21:10.573Z,1.20
2018-12-29T02:21:46.843Z,1.10
2018-12-29T02:22:23.168Z,1.10
2018-12-29T02:22:59.890Z,1.10
2018-12-29T02:23:36.180Z,1.10
2018-12-29T02:24:12.729Z,1.00
2018-12-29T02:24:49.171Z,0.90
2018-12-29T02:25:25.581Z,0.90
2018-12-29T02:26:01.890Z,0.80
2018-12-29T02:26:38.883Z,0.80
2018-12-29T02:27:16.260Z,0.80
2018-12-29T02:27:52.691Z,0.70
2018-12-29T02:28:29.116Z,0.80
2018-12-29T02:29:05.474Z,0.80
2018-12-29T02:29:42.255Z,0.70
2018-12-29T02:30:18.664Z,0.70
2018-12-29T02:30:54.920Z,0.70
2018-12-29T02:31:31.503Z,0.70
2018-12-29T02:32:07.771Z,0.80
2018-12-29T02:32:44.245Z,0.70
2018-12-29T02:33:20.553Z,0.70
2018-12-29T02:33:57.364Z,0.60
2018-12-29T02:34:33.964Z,0.60
2018-12-29T02:35:10.192Z,0.40
2018-12-29T02:35:46.732Z,0.30
2018-12-29T02:36:22.981Z,0.20
2018-12-29T02:36:59.506Z,0.10
2018-12-29T02:37:36.434Z,0.10
2018-12-29T02:38:12.655Z,0.00
2018-12-29T02:38:49.306Z,0.00
2018-12-29T02:39:25.937Z,0.10
2018-12-29T02:40:02.407Z,0.10
2018-12-29T02:40:38.596Z,0.00
2018-12-29T02:41:15.083Z,0.10
2018-12-29T02:41:51.234Z,0.00
2018-12-29T02:42:27.598Z,0.00
2018-12-29T02:43:04.409Z,0.00
2018-12-29T02:43:40.629Z,0.00
2018-12-29T02:44:16.958Z,0.00
2018-12-29T02:44:53.315Z,0.00
2018-12-29T02:45:33.331Z,0.10
2018-12-29T02:46:07.556Z,0.00
2018-12-29T02:46:44.046Z,0.00
2018-12-29T02:47:20.618Z,0.00
2018-12-29T02:47:57.355Z,0.10
2018-12-29T02:48:33.818Z,0.10
2018-12-29T02:49:10.098Z,0.20
2018-12-29T02:49:46.476Z,0.20
2018-12-29T02:50:22.849Z,0.10
2018-12-29T02:50:59.137Z,0.20
2018-12-29T02:51:35.486Z,0.20
2018-12-29T02:52:11.715Z,0.10
2018-12-29T02:52:48.262Z,0.10
2018-12-29T02:53:24.997Z,0.10
2018-12-29T02:54:01.260Z,0.10
2018-12-29T02:54:37.529Z,0.20
2018-12-29T02:55:13.834Z,0.20
2018-12-29T02:55:50.652Z,0.20
2018-12-29T02:56:27.217Z,0.20
2018-12-29T02:57:03.714Z,0.30
2018-12-29T02:57:40.106Z,0.20
2018-12-29T02:58:16.547Z,0.20
2018-12-29T02:58:52.983Z,0.30
2018-12-29T02:59:29.433Z,0.40
2018-12-29T03:00:05.881Z,0.50
2018-12-29T03:00:42.314Z,0.50
2018-12-29T03:01:18.915Z,0.50
2018-12-29T03:01:55.178Z,0.40
2018-12-29T03:02:31.210Z,0.40
2018-12-29T03:03:07.554Z,0.40
2018-12-29T03:03:44.069Z,0.30
2018-12-29T03:04:20.558Z,0.30
2018-12-29T03:04:56.952Z,0.40
2018-12-29T03:05:33.176Z,0.30
2018-12-29T03:06:09.465Z,0.30
2018-12-29T03:06:45.900Z,0.20
2018-12-29T03:07:22.361Z,0.20
2018-12-29T03:07:58.762Z,0.00
2018-12-29T03:08:35.362Z,0.10
2018-12-29T03:09:11.547Z,0.00
2018-12-29T03:09:48.133Z,0.00
2018-12-29T03:10:24.845Z,-0.10
2018-12-29T03:11:01.113Z,-0.10
2018-12-29T03:11:37.681Z,-0.10
2018-12-29T03:12:14.217Z,-0.20
2018-12-29T03:12:50.533Z,-0.20
2018-12-29T03:13:26.926Z,-0.30
2018-12-29T03:14:03.397Z,-0.30
2018-12-29T03:14:39.720Z,-0.20
2018-12-29T03:15:15.737Z,-0.30
2018-12-29T03:15:52.303Z,-0.30
2018-12-29T03:16:28.714Z,-0.30
2018-12-29T03:17:04.914Z,-0.30
2018-12-29T03:17:41.236Z,-0.40
2018-12-29T03:18:17.769Z,-0.40
2018-12-29T03:18:54.057Z,-0.40
2018-12-29T03:19:31.543Z,-0.40
2018-12-29T03:20:08.168Z,-0.40
2018-12-29T03:20:44.814Z,-0.40
2018-12-29T03:21:21.277Z,-0.40
2018-12-29T03:21:57.556Z,-0.40
2018-12-29T03:22:34.455Z,-0.40
2018-12-29T03:23:11.098Z,-0.30
2018-12-29T03:23:47.535Z,-0.30
2018-12-29T03:24:23.695Z,-0.30
2018-12-29T03:25:00.487Z,-0.20
2018-12-29T03:25:36.949Z,-0.20
2018-12-29T03:26:13.505Z,-0.20
2018-12-29T03:26:50.144Z,-0.20
2018-12-29T03:27:26.644Z,-0.20
2018-12-29T03:28:03.375Z,-0.30
2018-12-29T03:28:39.629Z,-0.30
2018-12-29T03:29:16.125Z,-0.30
2018-12-29T03:29:52.514Z,-0.30
2018-12-29T03:30:28.706Z,-0.30
2018-12-29T03:31:05.046Z,-0.20
2018-12-29T03:31:41.261Z,-0.20
2018-12-29T03:32:17.529Z,-0.20
2018-12-29T03:32:53.826Z,-0.20
2018-12-29T03:33:30.066Z,-0.10
2018-12-29T03:34:06.582Z,-0.10
2018-12-29T03:34:42.947Z,-0.20
2018-12-29T03:35:19.615Z,-0.20
2018-12-29T03:35:55.985Z,-0.30
2018-12-29T03:36:32.224Z,-0.20
2018-12-29T03:37:09.034Z,-0.20
2018-12-29T03:37:45.302Z,-0.20
2018-12-29T03:38:21.404Z,-0.20
2018-12-29T03:38:58.865Z,-0.20
2018-12-29T03:39:35.424Z,-0.20
2018-12-29T03:40:11.898Z,-0.20
2018-12-29T03:40:48.119Z,-0.30
2018-12-29T03:41:24.413Z,-0.20
2018-12-29T03:42:00.884Z,-0.30
2018-12-29T03:42:37.613Z,-0.30
2018-12-29T03:43:13.847Z,-0.30
2018-12-29T03:43:49.922Z,-0.20
2018-12-29T03:44:26.044Z,-0.20
2018-12-29T03:45:02.152Z,-0.30
2018-12-29T03:45:38.665Z,-0.30
2018-12-29T03:46:15.315Z,-0.30
2018-12-29T03:46:51.704Z,-0.30
2018-12-29T03:47:28.215Z,-0.30
2018-12-29T03:48:04.616Z,-0.20
2018-12-29T03:48:40.944Z,-0.20
2018-12-29T03:49:17.318Z,-0.30
2018-12-29T03:49:53.755Z,-0.30
2018-12-29T03:50:30.425Z,-0.40
2018-12-29T03:51:06.674Z,-0.40
2018-12-29T03:51:43.245Z,-0.50
2018-12-29T03:52:19.615Z,-0.50
2018-12-29T03:52:56.112Z,-0.50
2018-12-29T03:53:32.627Z,-0.50
2018-12-29T03:54:08.977Z,-0.50
2018-12-29T03:54:45.367Z,-0.50
2018-12-29T03:55:21.791Z,-0.40
2018-12-29T03:55:58.256Z,-0.40
2018-12-29T03:56:34.779Z,-0.40
2018-12-29T03:57:11.297Z,-0.40
2018-12-29T03:57:48.047Z,-0.40
2018-12-29T03:58:27.808Z,-0.30
2018-12-29T03:59:04.740Z,-0.30
2018-12-29T03:59:41.507Z,-0.20
2018-12-29T04:00:18.450Z,-0.20
2018-12-29T04:00:55.052Z,-0.20
2018-12-29T04:01:31.337Z,-0.20
2018-12-29T04:02:07.862Z,-0.20
2018-12-29T04:02:44.318Z,-0.30
2018-12-29T04:03:20.520Z,-0.30
2018-12-29T04:03:56.749Z,-0.30
2018-12-29T04:04:33.048Z,-0.30
2018-12-29T04:05:09.698Z,-0.20
2018-12-29T04:05:46.022Z,-0.30
2018-12-29T04:06:22.692Z,-0.30
2018-12-29T04:06:58.992Z,-0.40
2018-12-29T04:07:35.220Z,-0.30
2018-12-29T04:08:11.812Z,-0.30
2018-12-29T04:09:16.938Z,-0.40
2018-12-29T04:09:53.284Z,-0.40
2018-12-29T04:10:29.618Z,-0.50
2018-12-29T04:11:06.171Z,-0.50
2018-12-29T04:11:42.448Z,-0.50
2018-12-29T04:12:18.979Z,-0.50
2018-12-29T04:12:55.401Z,-0.40
2018-12-29T04:13:31.809Z,-0.40
2018-12-29T04:14:08.619Z,-0.40
2018-12-29T04:14:45.378Z,-0.40
2018-12-29T04:15:21.739Z,-0.40
2018-12-29T04:15:58.525Z,-0.40
2018-12-29T04:16:35.110Z,-0.40
2018-12-29T04:17:11.689Z,-0.40
2018-12-29T04:17:48.154Z,-0.40
2018-12-29T04:18:24.883Z,-0.40
2018-12-29T04:19:01.132Z,-0.40
2018-12-29T04:19:37.871Z,-0.40
2018-12-29T04:20:14.489Z,-0.40
2018-12-29T04:20:50.842Z,-0.40
2018-12-29T04:21:27.242Z,-0.40
2018-12-29T04:22:03.732Z,-0.40
2018-12-29T04:22:40.010Z,-0.40
2018-12-29T04:23:16.729Z,-0.50
2018-12-29T04:23:53.462Z,-0.50
2018-12-29T04:24:30.081Z,-0.50
2018-12-29T04:25:06.811Z,-0.50
2018-12-29T04:25:42.814Z,-0.60
2018-12-29T04:26:19.050Z,-0.50
2018-12-29T04:26:55.589Z,-0.50
2018-12-29T04:27:32.091Z,-0.60
2018-12-29T04:28:08.718Z,-0.60
2018-12-29T04:28:45.433Z,-0.60
2018-12-29T04:29:21.753Z,-0.60
2018-12-29T04:29:58.037Z,-0.60
2018-12-29T04:30:34.441Z,-0.50
2018-12-29T04:31:10.879Z,-0.60
2018-12-29T04:31:47.345Z,-0.60
2018-12-29T04:32:23.698Z,-0.60
2018-12-29T04:32:59.904Z,-0.70
2018-12-29T04:33:36.333Z,-0.60
2018-12-29T04:34:12.491Z,-0.60
2018-12-29T04:34:48.892Z,-0.60
2018-12-29T04:35:25.453Z,-0.60
2018-12-29T04:36:02.231Z,-0.60
2018-12-29T04:36:38.868Z,-0.60
2018-12-29T04:37:15.190Z,-0.60
2018-12-29T04:37:51.900Z,-0.60
2018-12-29T04:38:28.583Z,-0.60
2018-12-29T04:39:06.411Z,-0.70
2018-12-29T04:39:42.970Z,-0.70
2018-12-29T04:40:19.339Z,-0.70
2018-12-29T04:40:55.511Z,-0.70
2018-12-29T04:41:31.765Z,-0.70
2018-12-29T04:42:07.828Z,-0.60
2018-12-29T04:42:44.449Z,-0.60
2018-12-29T04:43:21.170Z,-0.50
2018-12-29T04:43:57.552Z,-0.50
2018-12-29T04:44:33.870Z,-0.50
2018-12-29T04:45:10.397Z,-0.50
2018-12-29T04:45:46.870Z,-0.50
2018-12-29T04:46:23.320Z,-0.50
2018-12-29T04:47:00.042Z,-0.60
2018-12-29T04:47:36.461Z,-0.60
2018-12-29T04:48:12.794Z,-0.60
2018-12-29T04:48:48.960Z,-0.60
2018-12-29T04:49:25.342Z,-0.60
2018-12-29T04:50:01.546Z,-0.60
2018-12-29T04:50:39.100Z,-0.60
2018-12-29T04:51:15.331Z,-0.60
2018-12-29T04:51:51.709Z,-0.60
2018-12-29T04:52:27.985Z,-0.60
2018-12-29T04:53:04.412Z,-0.60
2018-12-29T04:53:40.803Z,-0.60
2018-12-29T04:54:17.197Z,-0.60
2018-12-29T04:54:53.372Z,-0.60
2018-12-29T04:55:29.814Z,-0.50
2018-12-29T04:56:06.553Z,-0.40
2018-12-29T04:56:42.823Z,-0.40
2018-12-29T04:57:19.264Z,-0.40
2018-12-29T04:57:55.864Z,-0.30
2018-12-29T04:58:32.611Z,-0.40
2018-12-29T04:59:09.024Z,-0.50
2018-12-29T04:59:46.524Z,-0.60
2018-12-29T05:00:23.065Z,-0.60
2018-12-29T05:00:59.520Z,-0.60
2018-12-29T05:01:35.789Z,-0.60
2018-12-29T05:02:12.190Z,-0.60
2018-12-29T05:02:48.745Z,-0.60
2018-12-29T05:03:25.101Z,-0.70
2018-12-29T05:04:01.473Z,-0.70
2018-12-29T05:04:37.798Z,-0.70
2018-12-29T05:05:14.259Z,-0.70
2018-12-29T05:05:50.416Z,-0.70
2018-12-29T05:06:26.892Z,-0.70
2018-12-29T05:07:03.281Z,-0.70
2018-12-29T05:07:39.809Z,-0.70
2018-12-29T05:08:17.099Z,-0.60
2018-12-29T05:08:54.618Z,-0.60
2018-12-29T05:09:31.163Z,-0.60
2018-12-29T05:10:07.980Z,-0.60
2018-12-29T05:10:44.412Z,-0.50
2018-12-29T05:11:20.930Z,-0.50
2018-12-29T05:11:57.581Z,-0.50
2018-12-29T05:12:33.874Z,-0.50
2018-12-29T05:13:10.499Z,-0.50
2018-12-29T05:13:47.251Z,-0.40
2018-12-29T05:14:23.570Z,-0.40
2018-12-29T05:15:00.042Z,-0.40
2018-12-29T05:15:36.402Z,-0.30
2018-12-29T05:16:13.235Z,-0.30
2018-12-29T05:16:49.681Z,-0.20
2018-12-29T05:17:26.302Z,-0.20
2018-12-29T05:18:02.721Z,-0.10
2018-12-29T05:18:39.223Z,-0.20
2018-12-29T05:19:15.958Z,-0.10
2018-12-29T05:19:52.992Z,-0.10
2018-12-29T05:20:29.555Z,-0.20
2018-12-29T05:21:05.833Z,-0.30
2018-12-29T05:21:42.384Z,-0.30
2018-12-29T05:22:18.715Z,-0.30
2018-12-29T05:22:54.813Z,-0.30
2018-12-29T05:23:31.745Z,-0.20
2018-12-29T05:24:08.417Z,-0.10
2018-12-29T05:24:44.670Z,0.00
2018-12-29T05:25:21.465Z,-0.10
2018-12-29T05:25:57.586Z,-0.10
2018-12-29T05:26:34.026Z,-0.10
2018-12-29T05:27:10.479Z,-0.10
2018-12-29T05:27:46.867Z,-0.10
2018-12-29T05:28:23.030Z,-0.10
2018-12-29T05:28:59.547Z,-0.10
2018-12-29T05:29:36.295Z,-0.10
2018-12-29T05:30:12.898Z,-0.10
2018-12-29T05:30:49.567Z,-0.20
2018-12-29T05:31:25.790Z,-0.20
2018-12-29T05:32:02.020Z,-0.20
2018-12-29T05:32:38.311Z,-0.20
2018-12-29T05:33:14.746Z,-0.20
2018-12-29T05:33:51.119Z,-0.20
2018-12-29T05:34:27.385Z,-0.20
2018-12-29T05:35:03.996Z,-0.30
2018-12-29T05:35:40.384Z,-0.30
2018-12-29T05:36:17.015Z,-0.40
2018-12-29T05:36:53.438Z,-0.30
2018-12-29T05:37:30.103Z,-0.30
2018-12-29T05:38:06.628Z,-0.30
2018-12-29T05:38:42.922Z,-0.30
2018-12-29T05:39:19.516Z,-0.40
2018-12-29T05:39:56.024Z,-0.40
2018-12-29T05:40:32.638Z,-0.40
2018-12-29T05:41:08.823Z,-0.30
2018-12-29T05:41:45.236Z,-0.30
2018-12-29T05:42:21.672Z,-0.20
2018-12-29T05:42:58.133Z,-0.30
2018-12-29T05:43:34.577Z,-0.40
2018-12-29T05:44:11.221Z,-0.40
2018-12-29T05:44:47.913Z,-0.30
2018-12-29T05:45:24.564Z,-0.30
2018-12-29T05:46:01.073Z,-0.30
2018-12-29T05:46:37.725Z,-0.40
2018-12-29T05:47:14.437Z,-0.40
2018-12-29T05:47:50.910Z,-0.40
2018-12-29T05:48:27.606Z,-0.40
2018-12-29T05:49:04.286Z,-0.40
2018-12-29T05:49:40.684Z,-0.40
2018-12-29T05:50:17.646Z,-0.30
2018-12-29T05:50:54.140Z,-0.30
2018-12-29T05:51:30.780Z,-0.40
2018-12-29T05:52:07.393Z,-0.40
2018-12-29T05:52:44.086Z,-0.40
2018-12-29T05:53:20.445Z,-0.40
2018-12-29T05:53:56.631Z,-0.40
2018-12-29T05:54:33.262Z,-0.30
2018-12-29T05:55:10.013Z,-0.20
2018-12-29T05:55:46.801Z,-0.20
2018-12-29T05:56:23.563Z,-0.20
2018-12-29T05:56:59.949Z,-0.30
2018-12-29T05:57:36.468Z,-0.30
2018-12-29T05:58:13.123Z,-0.40
2018-12-29T05:58:49.650Z,-0.40
2018-12-29T05:59:26.169Z,-0.40
2018-12-29T06:00:02.445Z,-0.40
2018-12-29T06:00:39.253Z,-0.30
2018-12-29T06:01:15.971Z,-0.10
2018-12-29T06:01:52.309Z,-0.10
2018-12-29T06:02:28.759Z,-0.10
2018-12-29T06:03:04.980Z,-0.20
2018-12-29T06:03:41.360Z,-0.20
2018-12-29T06:04:17.689Z,-0.20
2018-12-29T06:04:54.088Z,-0.20
2018-12-29T06:05:30.670Z,-0.20
2018-12-29T06:06:06.987Z,-0.20
2018-12-29T06:06:43.325Z,-0.20
2018-12-29T06:07:19.681Z,-0.20
2018-12-29T06:07:56.289Z,-0.30
2018-12-29T06:08:32.593Z,-0.30
2018-12-29T06:09:09.138Z,-0.40
2018-12-29T06:09:45.248Z,-0.40
2018-12-29T06:10:21.948Z,-0.50
2018-12-29T06:10:58.178Z,-0.50
2018-12-29T06:11:34.840Z,-0.60
2018-12-29T06:12:11.327Z,-0.60
2018-12-29T06:12:47.905Z,-0.50
2018-12-29T06:13:24.259Z,-0.50
2018-12-29T06:14:00.668Z,-0.40
2018-12-29T06:14:37.328Z,-0.40
2018-12-29T06:15:13.517Z,-0.40
2018-12-29T06:15:50.186Z,-0.50
2018-12-29T06:16:27.794Z,-0.50
2018-12-29T06:17:04.491Z,-0.50
2018-12-29T06:17:41.187Z,-0.40
2018-12-29T06:18:17.902Z,-0.40
2018-12-29T06:18:54.452Z,-0.50
2018-12-29T06:19:31.203Z,-0.40
2018-12-29T06:20:07.797Z,-0.40
2018-12-29T06:20:44.192Z,-0.30
2018-12-29T06:21:20.673Z,-0.30
2018-12-29T06:21:57.220Z,-0.30
2018-12-29T06:22:33.966Z,-0.30
2018-12-29T06:23:10.245Z,-0.30
2018-12-29T06:23:46.669Z,-0.20
2018-12-29T06:24:23.260Z,-0.10
2018-12-29T06:24:59.850Z,-0.10
2018-12-29T06:25:36.510Z,-0.20
2018-12-29T06:26:12.831Z,-0.20
2018-12-29T06:26:49.354Z,-0.30
2018-12-29T06:27:25.826Z,-0.30
2018-12-29T06:28:03.117Z,-0.20
2018-12-29T06:28:39.585Z,-0.20
2018-12-29T06:29:16.074Z,-0.20
2018-12-29T06:29:52.937Z,-0.20
2018-12-29T06:30:29.415Z,-0.20
2018-12-29T06:31:05.876Z,-0.30
2018-12-29T06:31:42.196Z,-0.40
2018-12-29T06:32:18.478Z,-0.30
2018-12-29T06:32:55.017Z,-0.30
2018-12-29T06:33:31.337Z,-0.30
2018-12-29T06:34:07.664Z,-0.30
2018-12-29T06:34:44.446Z,-0.20
2018-12-29T06:35:21.089Z,-0.20
2018-12-29T06:35:57.308Z,-0.20
2018-12-29T06:36:33.644Z,-0.20
2018-12-29T06:37:10.032Z,-0.10
2018-12-29T06:37:46.433Z,-0.10
2018-12-29T06:38:22.368Z,0.00
2018-12-29T06:38:58.734Z,0.10
2018-12-29T06:39:35.354Z,0.00
2018-12-29T06:40:12.144Z,0.00
2018-12-29T06:40:48.817Z,0.00
2018-12-29T06:41:25.214Z,-0.20
2018-12-29T06:42:01.717Z,-0.30
2018-12-29T06:42:38.342Z,-0.30
2018-12-29T06:43:14.933Z,-0.30
2018-12-29T06:43:51.444Z,-0.40
2018-12-29T06:44:28.043Z,-0.30
2018-12-29T06:45:04.792Z,-0.30
2018-12-29T06:45:41.422Z,-0.30
2018-12-29T06:46:18.088Z,-0.30
2018-12-29T06:46:54.749Z,-0.20
2018-12-29T06:47:31.312Z,-0.30
2018-12-29T06:48:07.502Z,-0.30
2018-12-29T06:48:43.851Z,-0.40
2018-12-29T06:49:20.493Z,-0.50
2018-12-29T06:49:57.362Z,-0.50
2018-12-29T06:50:33.886Z,-0.40
2018-12-29T06:51:10.272Z,-0.50
2018-12-29T06:51:46.704Z,-0.40
2018-12-29T06:52:23.435Z,-0.30
2018-12-29T06:53:00.151Z,-0.40
2018-12-29T06:53:36.763Z,-0.40
2018-12-29T06:54:13.560Z,-0.40
2018-12-29T06:54:49.924Z,-0.40
2018-12-29T06:55:26.584Z,-0.40
2018-12-29T06:56:02.854Z,-0.40
2018-12-29T06:56:39.574Z,-0.50
2018-12-29T06:57:15.945Z,-0.50
2018-12-29T06:57:52.539Z,-0.40
2018-12-29T06:58:28.895Z,-0.30
2018-12-29T06:59:05.530Z,-0.30
2018-12-29T06:59:42.058Z,-0.30
2018-12-29T07:00:18.529Z,-0.30
2018-12-29T07:00:54.740Z,-0.30
2018-12-29T07:01:31.311Z,-0.30
2018-12-29T07:02:07.829Z,-0.40
2018-12-29T07:02:44.481Z,-0.40
2018-12-29T07:03:20.962Z,-0.40
2018-12-29T07:03:57.711Z,-0.40
2018-12-29T07:04:34.049Z,-0.40
2018-12-29T07:05:10.670Z,-0.30
2018-12-29T07:05:47.049Z,-0.30
2018-12-29T07:06:23.390Z,-0.30
2018-12-29T07:06:59.848Z,-0.20
2018-12-29T07:07:36.527Z,-0.20
2018-12-29T07:08:13.161Z,-0.20
2018-12-29T07:08:49.947Z,-0.20
2018-12-29T07:09:26.782Z,0.00
2018-12-29T07:10:03.059Z,0.00
2018-12-29T07:10:39.741Z,0.00
2018-12-29T07:11:16.102Z,-0.10
2018-12-29T07:11:52.728Z,-0.10
2018-12-29T07:12:29.369Z,0.00
2018-12-29T07:13:05.558Z,0.00
2018-12-29T07:13:42.037Z,0.10
2018-12-29T07:14:18.617Z,0.00
2018-12-29T07:14:55.055Z,0.10
2018-12-29T07:15:31.397Z,0.00
2018-12-29T07:16:07.938Z,0.00
2018-12-29T07:16:44.485Z,0.00
2018-12-29T07:17:20.908Z,-0.10
2018-12-29T07:17:57.470Z,-0.20
2018-12-29T07:18:34.120Z,-0.30
2018-12-29T07:19:10.884Z,-0.30
2018-12-29T07:19:47.354Z,-0.30
2018-12-29T07:20:23.667Z,-0.40
2018-12-29T07:21:00.123Z,-0.40
2018-12-29T07:21:36.804Z,-0.40
2018-12-29T07:22:13.082Z,-0.40
2018-12-29T07:22:49.645Z,-0.40
2018-12-29T07:23:26.310Z,-0.40
2018-12-29T07:24:02.632Z,-0.50
2018-12-29T07:24:39.449Z,-0.50
2018-12-29T07:25:15.865Z,-0.50
2018-12-29T07:25:52.572Z,-0.60
2018-12-29T07:26:29.069Z,-0.60
2018-12-29T07:27:05.579Z,-0.50
2018-12-29T07:27:42.117Z,-0.50
2018-12-29T07:28:18.380Z,-0.50
2018-12-29T07:28:55.142Z,-0.60
2018-12-29T07:29:38.068Z,-0.50
2018-12-29T07:30:09.576Z,-0.50
2018-12-29T07:30:46.896Z,-0.50
2018-12-29T07:31:23.178Z,-0.60
2018-12-29T07:31:59.437Z,-0.50
2018-12-29T07:32:36.144Z,-0.60
2018-12-29T07:33:12.518Z,-0.60
2018-12-29T07:33:48.945Z,-0.60
2018-12-29T07:34:25.635Z,-0.60
2018-12-29T07:35:03.044Z,-0.60
2018-12-29T07:35:39.850Z,-0.60
2018-12-29T07:36:16.349Z,-0.60
2018-12-29T07:36:52.951Z,-0.50
2018-12-29T07:37:29.556Z,-0.50
2018-12-29T07:38:06.152Z,-0.40
2018-12-29T07:38:42.766Z,-0.30
2018-12-29T07:39:19.393Z,-0.30
2018-12-29T07:39:55.740Z,-0.40
2018-12-29T07:40:32.582Z,-0.40
2018-12-29T07:41:08.891Z,-0.50
2018-12-29T07:41:45.172Z,-0.40
2018-12-29T07:42:21.410Z,-0.30
2018-12-29T07:42:57.812Z,-0.30
2018-12-29T07:43:34.713Z,-0.30
2018-12-29T07:44:10.812Z,-0.20
2018-12-29T07:44:47.302Z,-0.10
2018-12-29T07:45:24.211Z,-0.10
2018-12-29T07:46:00.453Z,-0.20
2018-12-29T07:46:36.651Z,-0.20
2018-12-29T07:47:13.300Z,-0.30
2018-12-29T07:47:49.701Z,-0.30
2018-12-29T07:48:26.360Z,-0.20
2018-12-29T07:49:02.528Z,-0.20
2018-12-29T07:49:39.169Z,-0.30
2018-12-29T07:50:15.818Z,-0.30
2018-12-29T07:50:54.141Z,-0.30
2018-12-29T07:51:30.460Z,-0.30
2018-12-29T07:52:07.031Z,-0.30
2018-12-29T07:52:43.472Z,-0.30
2018-12-29T07:53:19.732Z,-0.30
2018-12-29T07:53:57.824Z,-0.30
2018-12-29T07:54:34.453Z,-0.30
2018-12-29T07:55:10.875Z,-0.40
2018-12-29T07:55:48.339Z,-0.40
2018-12-29T07:56:25.205Z,-0.30
2018-12-29T07:57:01.694Z,-0.20